Terminal Aerodrome Forecast
Issued by NWS

Home | Current Version | Previous Version | Text Only | Print | Product List | Glossary Off
Versions: 1 2 3 4 5 6 7 8 9 10 11 12 13 14 15

000
FTUS43 KBIS 272006 AAA
TAFJMS
TAF AMD
KJMS 272006Z 2720/2818 21013G20KT P6SM VCTS SCT110CB
     FM272300 30015KT P6SM SCT050
     FM280400 31008KT P6SM SKC=

USA.gov is the U.S. government's official web portal to all federal, state and local government web resources and services.